sensor_id;sensor_type;location;lat;lon;timestamp;pressure;altitude;pressure_sealevel;temperature;humidity
61786;BME280;47692;53.714;11.372;2023-02-28T00:00:53;102617.03;;;-1.76;96.82
61786;BME280;47692;53.714;11.372;2023-02-28T00:03:27;102615.25;;;-1.77;96.01
61786;BME280;47692;53.714;11.372;2023-02-28T00:05:52;102623.91;;;-1.75;96.29
61786;BME280;47692;53.714;11.372;2023-02-28T00:08:18;102623.13;;;-1.74;95.97
61786;BME280;47692;53.714;11.372;2023-02-28T00:10:43;102629.03;;;-1.75;95.45
61786;BME280;47692;53.714;11.372;2023-02-28T00:13:09;102620.72;;;-1.86;94.68
61786;BME280;47692;53.714;11.372;2023-02-28T00:15:34;102614.53;;;-1.89;95.25
61786;BME280;47692;53.714;11.372;2023-02-28T00:18:01;102606.41;;;-1.97;95.60
61786;BME280;47692;53.714;11.372;2023-02-28T00:20:27;102611.34;;;-2.00;95.72
61786;BME280;47692;53.714;11.372;2023-02-28T00:22:53;102612.03;;;-2.03;95.28
61786;BME280;47692;53.714;11.372;2023-02-28T00:25:24;102621.91;;;-2.09;95.29
61786;BME280;47692;53.714;11.372;2023-02-28T00:27:50;102626.81;;;-2.27;94.72
61786;BME280;47692;53.714;11.372;2023-02-28T00:30:18;102621.63;;;-2.29;94.53
61786;BME280;47692;53.714;11.372;2023-02-28T00:32:44;102618.84;;;-2.32;94.18
61786;BME280;47692;53.714;11.372;2023-02-28T00:35:10;102627.31;;;-2.33;94.48
61786;BME280;47692;53.714;11.372;2023-02-28T00:37:35;102623.59;;;-2.38;94.04
61786;BME280;47692;53.714;11.372;2023-02-28T00:40:01;102625.88;;;-2.42;94.38
61786;BME280;47692;53.714;11.372;2023-02-28T00:42:29;102623.59;;;-2.38;93.72
61786;BME280;47692;53.714;11.372;2023-02-28T00:44:55;102623.31;;;-2.42;93.73
61786;BME280;47692;53.714;11.372;2023-02-28T00:47:26;102626.41;;;-2.48;94.26
61786;BME280;47692;53.714;11.372;2023-02-28T00:49:51;102630.59;;;-2.49;94.82
61786;BME280;47692;53.714;11.372;2023-02-28T00:52:16;102633.38;;;-2.46;94.63
61786;BME280;47692;53.714;11.372;2023-02-28T00:54:44;102633.28;;;-2.47;94.83
61786;BME280;47692;53.714;11.372;2023-02-28T00:57:12;102632.59;;;-2.45;94.98
61786;BME280;47692;53.714;11.372;2023-02-28T00:59:40;102633.28;;;-2.47;95.34
61786;BME280;47692;53.714;11.372;2023-02-28T01:02:06;102631.50;;;-2.48;94.28
61786;BME280;47692;53.714;11.372;2023-02-28T01:04:31;102636.41;;;-2.51;93.99
61786;BME280;47692;53.714;11.372;2023-02-28T01:06:56;102631.50;;;-2.48;93.75
61786;BME280;47692;53.714;11.372;2023-02-28T01:09:22;102638.97;;;-2.51;93.94
61786;BME280;47692;53.714;11.372;2023-02-28T01:11:47;102633.59;;;-2.56;93.35
61786;BME280;47692;53.714;11.372;2023-02-28T01:14:15;102635.66;;;-2.64;93.75
61786;BME280;47692;53.714;11.372;2023-02-28T01:16:40;102626.13;;;-2.66;93.65
61786;BME280;47692;53.714;11.372;2023-02-28T01:19:06;102630.28;;;-2.68;93.50
61786;BME280;47692;53.714;11.372;2023-02-28T01:21:31;102634.31;;;-2.72;92.96
61786;BME280;47692;53.714;11.372;2023-02-28T01:23:57;102633.53;;;-2.71;93.24
61786;BME280;47692;53.714;11.372;2023-02-28T01:26:23;102627.81;;;-2.67;93.08
61786;BME280;47692;53.714;11.372;2023-02-28T01:28:51;102630.53;;;-2.64;93.28
61786;BME280;47692;53.714;11.372;2023-02-28T01:31:17;102630.16;;;-2.70;93.24
61786;BME280;47692;53.714;11.372;2023-02-28T01:33:43;102629.00;;;-2.75;93.48
61786;BME280;47692;53.714;11.372;2023-02-28T01:36:12;102628.03;;;-2.77;94.24
61786;BME280;47692;53.714;11.372;2023-02-28T01:38:38;102640.00;;;-2.76;94.25
61786;BME280;47692;53.714;11.372;2023-02-28T01:41:03;102635.88;;;-2.74;94.39
61786;BME280;47692;53.714;11.372;2023-02-28T01:46:09;102631.38;;;-2.78;94.74
61786;BME280;47692;53.714;11.372;2023-02-28T01:48:37;102634.34;;;-2.85;94.67
61786;BME280;47692;53.714;11.372;2023-02-28T01:51:08;102629.81;;;-2.89;95.69
61786;BME280;47692;53.714;11.372;2023-02-28T01:53:42;102637.50;;;-2.89;96.60
61786;BME280;47692;53.714;11.372;2023-02-28T01:56:10;102631.56;;;-2.88;96.58
61786;BME280;47692;53.714;11.372;2023-02-28T01:58:37;102635.31;;;-2.83;96.90
61786;BME280;47692;53.714;11.372;2023-02-28T02:01:02;102632.53;;;-2.73;98.60
61786;BME280;47692;53.714;11.372;2023-02-28T02:03:29;102635.09;;;-2.73;98.87
61786;BME280;47692;53.714;11.372;2023-02-28T02:05:54;102633.53;;;-2.71;99.59
61786;BME280;47692;53.714;11.372;2023-02-28T02:08:23;102633.94;;;-2.78;100.00
61786;BME280;47692;53.714;11.372;2023-02-28T02:10:55;102631.69;;;-2.87;100.00
61786;BME280;47692;53.714;11.372;2023-02-28T02:18:54;102629.13;;;-3.27;100.00
61786;BME280;47692;53.714;11.372;2023-02-28T02:24:47;102623.31;;;-3.25;100.00
61786;BME280;47692;53.714;11.372;2023-02-28T02:30:08;102633.75;;;-3.21;98.89
61786;BME280;47692;53.714;11.372;2023-02-28T02:38:31;102623.31;;;-3.25;97.12
61786;BME280;47692;53.714;11.372;2023-02-28T02:43:33;102614.63;;;-3.28;96.19
61786;BME280;47692;53.714;11.372;2023-02-28T02:46:06;102615.56;;;-3.26;95.95
61786;BME280;47692;53.714;11.372;2023-02-28T02:48:36;102623.16;;;-3.28;95.73
61786;BME280;47692;53.714;11.372;2023-02-28T02:51:07;102617.25;;;-3.27;95.88
61786;BME280;47692;53.714;11.372;2023-02-28T02:53:42;102627.66;;;-3.23;95.61
61786;BME280;47692;53.714;11.372;2023-02-28T02:56:10;102628.25;;;-3.28;95.27
61786;BME280;47692;53.714;11.372;2023-02-28T02:58:40;102625.31;;;-3.34;94.89
61786;BME280;47692;53.714;11.372;2023-02-28T03:01:08;102627.63;;;-3.37;95.34
61786;BME280;47692;53.714;11.372;2023-02-28T03:03:36;102633.34;;;-3.41;95.46
61786;BME280;47692;53.714;11.372;2023-02-28T03:06:02;102627.47;;;-3.40;95.53
61786;BME280;47692;53.714;11.372;2023-02-28T03:08:31;102625.59;;;-3.43;95.84
61786;BME280;47692;53.714;11.372;2023-02-28T03:11:00;102629.00;;;-3.42;96.10
61786;BME280;47692;53.714;11.372;2023-02-28T03:21:54;102633.13;;;-3.58;95.24
61786;BME280;47692;53.714;11.372;2023-02-28T03:24:24;102642.44;;;-3.58;95.11
61786;BME280;47692;53.714;11.372;2023-02-28T03:26:57;102636.94;;;-3.64;94.88
61786;BME280;47692;53.714;11.372;2023-02-28T03:29:34;102641.84;;;-3.67;95.05
61786;BME280;47692;53.714;11.372;2023-02-28T03:32:09;102633.00;;;-3.72;94.73
61786;BME280;47692;53.714;11.372;2023-02-28T03:34:46;102629.53;;;-3.86;94.14
61786;BME280;47692;53.714;11.372;2023-02-28T03:37:19;102641.50;;;-3.85;94.05
61786;BME280;47692;53.714;11.372;2023-02-28T03:39:54;102643.50;;;-3.81;93.68
61786;BME280;47692;53.714;11.372;2023-02-28T03:42:25;102638.38;;;-3.81;93.97
61786;BME280;47692;53.714;11.372;2023-02-28T03:44:56;102636.63;;;-3.82;93.43
61786;BME280;47692;53.714;11.372;2023-02-28T03:47:36;102630.13;;;-3.77;94.12
61786;BME280;47692;53.714;11.372;2023-02-28T03:50:10;102639.66;;;-3.75;93.93
61786;BME280;47692;53.714;11.372;2023-02-28T03:52:53;102640.66;;;-3.72;93.63
61786;BME280;47692;53.714;11.372;2023-02-28T03:55:28;102633.28;;;-3.81;94.03
61786;BME280;47692;53.714;11.372;2023-02-28T04:00:50;102636.72;;;-4.06;95.02
61786;BME280;47692;53.714;11.372;2023-02-28T04:03:18;102635.59;;;-3.98;95.62
61786;BME280;47692;53.714;11.372;2023-02-28T04:05:53;102634.66;;;-3.86;95.04
61786;BME280;47692;53.714;11.372;2023-02-28T04:08:20;102632.88;;;-3.87;94.79
61786;BME280;47692;53.714;11.372;2023-02-28T04:10:51;102636.78;;;-3.93;95.43
61786;BME280;47692;53.714;11.372;2023-02-28T04:13:19;102629.13;;;-3.93;95.31
61786;BME280;47692;53.714;11.372;2023-02-28T04:15:44;102635.97;;;-3.92;95.67
61786;BME280;47692;53.714;11.372;2023-02-28T04:18:09;102624.03;;;-3.93;96.02
61786;BME280;47692;53.714;11.372;2023-02-28T04:20:35;102631.25;;;-3.99;96.06
61786;BME280;47692;53.714;11.372;2023-02-28T04:23:01;102634.59;;;-4.00;96.53
61786;BME280;47692;53.714;11.372;2023-02-28T04:25:26;102624.97;;;-4.04;96.18
61786;BME280;47692;53.714;11.372;2023-02-28T04:27:52;102635.38;;;-4.01;96.20
61786;BME280;47692;53.714;11.372;2023-02-28T04:30:17;102638.03;;;-3.99;95.55
61786;BME280;47692;53.714;11.372;2023-02-28T04:32:42;102628.22;;;-3.93;94.83
61786;BME280;47692;53.714;11.372;2023-02-28T04:35:08;102626.84;;;-3.88;95.15
61786;BME280;47692;53.714;11.372;2023-02-28T04:37:33;102627.75;;;-3.87;95.06
61786;BME280;47692;53.714;11.372;2023-02-28T04:40:00;102634.09;;;-3.94;95.32
61786;BME280;47692;53.714;11.372;2023-02-28T04:42:25;102635.59;;;-3.98;95.48
61786;BME280;47692;53.714;11.372;2023-02-28T04:44:51;102632.63;;;-4.04;96.34
61786;BME280;47692;53.714;11.372;2023-02-28T04:47:17;102631.63;;;-4.06;97.23
61786;BME280;47692;53.714;11.372;2023-02-28T04:49:42;102642.41;;;-4.10;97.34
61786;BME280;47692;53.714;11.372;2023-02-28T04:52:08;102639.63;;;-4.13;97.17
61786;BME280;47692;53.714;11.372;2023-02-28T04:54:35;102643.75;;;-4.15;97.50
61786;BME280;47692;53.714;11.372;2023-02-28T04:57:00;102645.41;;;-4.16;97.33
61786;BME280;47692;53.714;11.372;2023-02-28T04:59:26;102644.31;;;-4.19;97.75
61786;BME280;47692;53.714;11.372;2023-02-28T05:01:51;102647.22;;;-4.27;97.70
61786;BME280;47692;53.714;11.372;2023-02-28T05:04:17;102646.25;;;-4.29;97.36
61786;BME280;47692;53.714;11.372;2023-02-28T05:06:42;102645.25;;;-4.31;96.63
61786;BME280;47692;53.714;11.372;2023-02-28T05:09:08;102641.94;;;-4.30;96.15
61786;BME280;47692;53.714;11.372;2023-02-28T05:11:34;102646.13;;;-4.30;96.14
61786;BME280;47692;53.714;11.372;2023-02-28T05:14:11;102652.31;;;-4.27;95.72
61786;BME280;47692;53.714;11.372;2023-02-28T05:16:36;102652.81;;;-4.32;95.18
61786;BME280;47692;53.714;11.372;2023-02-28T05:19:02;102654.44;;;-4.33;95.73
61786;BME280;47692;53.714;11.372;2023-02-28T05:21:32;102652.81;;;-4.32;95.66
61786;BME280;47692;53.714;11.372;2023-02-28T05:24:00;102654.34;;;-4.34;95.49
61786;BME280;47692;53.714;11.372;2023-02-28T05:26:26;102657.47;;;-4.39;95.32
61786;BME280;47692;53.714;11.372;2023-02-28T05:28:53;102659.47;;;-4.46;94.82
61786;BME280;47692;53.714;11.372;2023-02-28T05:31:18;102664.34;;;-4.38;94.44
61786;BME280;47692;53.714;11.372;2023-02-28T05:33:43;102668.31;;;-4.29;94.56
61786;BME280;47692;53.714;11.372;2023-02-28T05:36:09;102664.31;;;-4.26;95.14
61786;BME280;47692;53.714;11.372;2023-02-28T05:38:34;102660.97;;;-4.25;95.78
61786;BME280;47692;53.714;11.372;2023-02-28T05:40:59;102661.06;;;-4.23;97.21
61786;BME280;47692;53.714;11.372;2023-02-28T05:43:25;102663.00;;;-4.32;97.56
61786;BME280;47692;53.714;11.372;2023-02-28T05:45:50;102661.91;;;-4.36;98.40
61786;BME280;47692;53.714;11.372;2023-02-28T05:48:15;102662.88;;;-4.34;99.23
61786;BME280;47692;53.714;11.372;2023-02-28T05:50:41;102667.78;;;-4.37;99.94
61786;BME280;47692;53.714;11.372;2023-02-28T05:53:08;102664.34;;;-4.38;100.00
61786;BME280;47692;53.714;11.372;2023-02-28T05:55:33;102675.44;;;-4.37;99.89
61786;BME280;47692;53.714;11.372;2023-02-28T05:58:01;102670.91;;;-4.41;99.51
61786;BME280;47692;53.714;11.372;2023-02-28T06:00:26;102676.78;;;-4.42;99.30
61786;BME280;47692;53.714;11.372;2023-02-28T06:02:51;102671.44;;;-4.45;98.96
61786;BME280;47692;53.714;11.372;2023-02-28T06:05:21;102672.13;;;-4.48;98.68
61786;BME280;47692;53.714;11.372;2023-02-28T06:07:46;102670.34;;;-4.49;98.38
61786;BME280;47692;53.714;11.372;2023-02-28T06:10:12;102674.47;;;-4.51;98.49
61786;BME280;47692;53.714;11.372;2023-02-28T06:12:37;102680.09;;;-4.55;97.89
61786;BME280;47692;53.714;11.372;2023-02-28T06:15:03;102684.13;;;-4.59;97.83
61786;BME280;47692;53.714;11.372;2023-02-28T06:17:29;102681.34;;;-4.62;97.50
61786;BME280;47692;53.714;11.372;2023-02-28T06:19:54;102676.81;;;-4.66;97.49
61786;BME280;47692;53.714;11.372;2023-02-28T06:22:19;102682.34;;;-4.72;97.10
61786;BME280;47692;53.714;11.372;2023-02-28T06:24:45;102688.13;;;-4.74;97.07
61786;BME280;47692;53.714;11.372;2023-02-28T06:27:10;102688.38;;;-4.71;96.48
61786;BME280;47692;53.714;11.372;2023-02-28T06:29:35;102692.78;;;-4.68;96.72
61786;BME280;47692;53.714;11.372;2023-02-28T06:32:01;102690.44;;;-4.65;96.00
61786;BME280;47692;53.714;11.372;2023-02-28T06:34:27;102689.78;;;-4.63;95.88
61786;BME280;47692;53.714;11.372;2023-02-28T06:36:52;102692.22;;;-4.52;96.01
61786;BME280;47692;53.714;11.372;2023-02-28T06:39:18;102696.75;;;-4.48;96.18
61786;BME280;47692;53.714;11.372;2023-02-28T06:41:44;102698.53;;;-4.47;96.35
61786;BME280;47692;53.714;11.372;2023-02-28T06:44:12;102696.75;;;-4.48;96.78
61786;BME280;47692;53.714;11.372;2023-02-28T06:46:40;102699.63;;;-4.44;96.98
61786;BME280;47692;53.714;11.372;2023-02-28T06:49:06;102700.16;;;-4.36;96.86
61786;BME280;47692;53.714;11.372;2023-02-28T06:51:34;102704.50;;;-4.35;96.92
61786;BME280;47692;53.714;11.372;2023-02-28T06:54:00;102710.69;;;-4.31;97.17
61786;BME280;47692;53.714;11.372;2023-02-28T06:56:25;102705.69;;;-4.30;97.24
61786;BME280;47692;53.714;11.372;2023-02-28T06:58:51;102710.66;;;-4.19;98.02
61786;BME280;47692;53.714;11.372;2023-02-28T07:01:18;102709.31;;;-4.14;98.80
61786;BME280;47692;53.714;11.372;2023-02-28T07:03:44;102712.63;;;-4.15;99.69
61786;BME280;47692;53.714;11.372;2023-02-28T07:06:09;102709.34;;;-4.26;99.90
61786;BME280;47692;53.714;11.372;2023-02-28T07:08:35;102712.44;;;-4.30;100.00
61786;BME280;47692;53.714;11.372;2023-02-28T07:11:01;102703.09;;;-4.18;100.00
61786;BME280;47692;53.714;11.372;2023-02-28T07:13:26;102717.59;;;-4.05;100.00
61786;BME280;47692;53.714;11.372;2023-02-28T07:16:05;102721.69;;;-3.95;100.00
61786;BME280;47692;53.714;11.372;2023-02-28T07:18:31;102709.63;;;-3.84;100.00
61786;BME280;47692;53.714;11.372;2023-02-28T07:20:57;102712.47;;;-3.68;100.00
61786;BME280;47692;53.714;11.372;2023-02-28T07:23:23;102714.63;;;-3.61;100.00
61786;BME280;47692;53.714;11.372;2023-02-28T07:25:49;102710.34;;;-3.62;100.00
61786;BME280;47692;53.714;11.372;2023-02-28T07:28:14;102713.78;;;-3.73;100.00
61786;BME280;47692;53.714;11.372;2023-02-28T07:30:41;102713.38;;;-3.79;100.00
61786;BME280;47692;53.714;11.372;2023-02-28T07:33:06;102718.25;;;-3.70;100.00
61786;BME280;47692;53.714;11.372;2023-02-28T07:35:32;102712.13;;;-3.47;100.00
61786;BME280;47692;53.714;11.372;2023-02-28T07:37:58;102712.75;;;-3.38;100.00
61786;BME280;47692;53.714;11.372;2023-02-28T07:40:24;102724.19;;;-3.19;100.00
61786;BME280;47692;53.714;11.372;2023-02-28T07:42:50;102718.91;;;-2.96;100.00
61786;BME280;47692;53.714;11.372;2023-02-28T07:45:15;102726.56;;;-2.82;100.00
61786;BME280;47692;53.714;11.372;2023-02-28T07:47:42;102719.78;;;-2.68;100.00
61786;BME280;47692;53.714;11.372;2023-02-28T07:50:09;102728.50;;;-2.51;100.00
61786;BME280;47692;53.714;11.372;2023-02-28T07:52:38;102725.38;;;-2.47;100.00
61786;BME280;47692;53.714;11.372;2023-02-28T07:55:05;102720.06;;;-2.50;100.00
61786;BME280;47692;53.714;11.372;2023-02-28T07:57:31;102725.16;;;-2.50;100.00
61786;BME280;47692;53.714;11.372;2023-02-28T07:59:57;102723.28;;;-2.39;100.00
61786;BME280;47692;53.714;11.372;2023-02-28T08:02:22;102725.13;;;-2.23;100.00
61786;BME280;47692;53.714;11.372;2023-02-28T08:04:47;102724.59;;;-2.04;100.00
61786;BME280;47692;53.714;11.372;2023-02-28T08:07:13;102731.16;;;-1.95;100.00
61786;BME280;47692;53.714;11.372;2023-02-28T08:09:40;102725.25;;;-1.93;100.00
61786;BME280;47692;53.714;11.372;2023-02-28T08:12:06;102727.28;;;-1.88;100.00
61786;BME280;47692;53.714;11.372;2023-02-28T08:14:32;102730.06;;;-1.70;100.00
61786;BME280;47692;53.714;11.372;2023-02-28T08:16:57;102730.81;;;-1.57;100.00
61786;BME280;47692;53.714;11.372;2023-02-28T08:19:23;102731.34;;;-1.48;100.00
61786;BME280;47692;53.714;11.372;2023-02-28T08:21:48;102728.19;;;-1.44;100.00
61786;BME280;47692;53.714;11.372;2023-02-28T08:24:13;102722.88;;;-1.32;100.00
61786;BME280;47692;53.714;11.372;2023-02-28T08:26:39;102735.25;;;-1.10;100.00
61786;BME280;47692;53.714;11.372;2023-02-28T08:29:04;102725.72;;;-0.98;100.00
61786;BME280;47692;53.714;11.372;2023-02-28T08:31:30;102723.75;;;-0.87;100.00
61786;BME280;47692;53.714;11.372;2023-02-28T08:33:55;102727.25;;;-0.70;100.00
61786;BME280;47692;53.714;11.372;2023-02-28T08:36:24;102717.66;;;-0.57;100.00
61786;BME280;47692;53.714;11.372;2023-02-28T08:38:50;102721.78;;;-0.61;100.00
61786;BME280;47692;53.714;11.372;2023-02-28T08:41:16;102728.53;;;-0.46;100.00
61786;BME280;47692;53.714;11.372;2023-02-28T08:43:41;102722.06;;;-0.40;100.00
61786;BME280;47692;53.714;11.372;2023-02-28T08:46:08;102737.97;;;-0.30;100.00
61786;BME280;47692;53.714;11.372;2023-02-28T08:48:35;102736.38;;;-0.28;99.11
61786;BME280;47692;53.714;11.372;2023-02-28T08:51:23;102739.69;;;0.02;97.86
61786;BME280;47692;53.714;11.372;2023-02-28T08:53:52;102739.38;;;0.29;96.60
61786;BME280;47692;53.714;11.372;2023-02-28T08:56:17;102730.78;;;0.45;95.10
61786;BME280;47692;53.714;11.372;2023-02-28T08:58:44;102734.59;;;0.53;93.45
61786;BME280;47692;53.714;11.372;2023-02-28T09:01:12;102737.06;;;0.68;91.88
61786;BME280;47692;53.714;11.372;2023-02-28T09:03:38;102743.56;;;0.78;90.83
61786;BME280;47692;53.714;11.372;2023-02-28T09:06:04;102738.00;;;0.87;89.72
61786;BME280;47692;53.714;11.372;2023-02-28T09:08:30;102736.69;;;0.95;90.73
61786;BME280;47692;53.714;11.372;2023-02-28T09:10:56;102743.91;;;1.02;90.31
61786;BME280;47692;53.714;11.372;2023-02-28T09:13:23;102740.91;;;1.11;88.95
61786;BME280;47692;53.714;11.372;2023-02-28T09:15:49;102740.41;;;1.18;88.59
61786;BME280;47692;53.714;11.372;2023-02-28T09:18:14;102741.19;;;1.17;88.75
61786;BME280;47692;53.714;11.372;2023-02-28T09:20:41;102747.22;;;1.18;89.39
61786;BME280;47692;53.714;11.372;2023-02-28T09:23:07;102739.50;;;1.18;89.36
61786;BME280;47692;53.714;11.372;2023-02-28T09:25:33;102745.69;;;1.21;89.98
61786;BME280;47692;53.714;11.372;2023-02-28T09:27:58;102745.97;;;1.27;90.36
61786;BME280;47692;53.714;11.372;2023-02-28T09:30:24;102745.53;;;1.36;90.86
61786;BME280;47692;53.714;11.372;2023-02-28T09:32:49;102741.72;;;1.46;90.58
61786;BME280;47692;53.714;11.372;2023-02-28T09:35:19;102744.97;;;1.61;89.88
61786;BME280;47692;53.714;11.372;2023-02-28T09:37:46;102749.69;;;1.70;89.70
61786;BME280;47692;53.714;11.372;2023-02-28T09:40:12;102741.78;;;1.85;88.02
61786;BME280;47692;53.714;11.372;2023-02-28T09:42:38;102740.13;;;2.05;85.18
61786;BME280;47692;53.714;11.372;2023-02-28T09:45:21;102756.19;;;2.00;84.19
61786;BME280;47692;53.714;11.372;2023-02-28T09:47:48;102751.47;;;2.09;84.63
61786;BME280;47692;53.714;11.372;2023-02-28T09:52:42;102752.72;;;2.19;85.65
61786;BME280;47692;53.714;11.372;2023-02-28T09:55:28;102751.91;;;2.20;85.73
61786;BME280;47692;53.714;11.372;2023-02-28T09:57:56;102750.34;;;2.23;84.13
61786;BME280;47692;53.714;11.372;2023-02-28T10:00:29;102752.66;;;2.37;83.27
61786;BME280;47692;53.714;11.372;2023-02-28T10:03:01;102755.25;;;2.37;82.02
61786;BME280;47692;53.714;11.372;2023-02-28T10:05:33;102754.66;;;2.42;82.13
61786;BME280;47692;53.714;11.372;2023-02-28T10:08:17;102747.19;;;2.49;80.96
61786;BME280;47692;53.714;11.372;2023-02-28T10:10:51;102744.63;;;2.70;80.55
61786;BME280;47692;53.714;11.372;2023-02-28T10:18:51;102750.56;;;2.88;78.27
61786;BME280;47692;53.714;11.372;2023-02-28T10:21:47;102745.16;;;2.82;78.64
61786;BME280;47692;53.714;11.372;2023-02-28T10:24:20;102747.22;;;2.91;79.29
61786;BME280;47692;53.714;11.372;2023-02-28T10:26:48;102749.97;;;2.96;78.33
61786;BME280;47692;53.714;11.372;2023-02-28T10:29:14;102758.94;;;3.04;76.98
61786;BME280;47692;53.714;11.372;2023-02-28T10:31:40;102746.03;;;3.04;76.70
61786;BME280;47692;53.714;11.372;2023-02-28T10:34:05;102745.25;;;3.06;76.89
61786;BME280;47692;53.714;11.372;2023-02-28T10:36:31;102753.00;;;3.28;77.21
61786;BME280;47692;53.714;11.372;2023-02-28T10:38:57;102747.13;;;3.32;75.44
61786;BME280;47692;53.714;11.372;2023-02-28T10:41:32;102757.38;;;3.51;75.09
61786;BME280;47692;53.714;11.372;2023-02-28T10:44:20;102756.22;;;3.66;74.61
61786;BME280;47692;53.714;11.372;2023-02-28T10:46:46;102756.31;;;3.69;73.88
61786;BME280;47692;53.714;11.372;2023-02-28T10:49:37;102758.56;;;3.82;72.01
61786;BME280;47692;53.714;11.372;2023-02-28T10:52:11;102756.47;;;3.96;73.09
61786;BME280;47692;53.714;11.372;2023-02-28T10:54:37;102755.94;;;4.05;71.57
61786;BME280;47692;53.714;11.372;2023-02-28T10:57:23;102756.06;;;4.08;69.97
61786;BME280;47692;53.714;11.372;2023-02-28T11:00:08;102756.47;;;4.19;70.49
61786;BME280;47692;53.714;11.372;2023-02-28T11:02:38;102762.47;;;4.18;70.53
61786;BME280;47692;53.714;11.372;2023-02-28T11:05:31;102760.88;;;4.22;70.00
61786;BME280;47692;53.714;11.372;2023-02-28T11:08:13;102760.47;;;4.35;69.28
61786;BME280;47692;53.714;11.372;2023-02-28T11:10:39;102756.41;;;4.42;68.16
61786;BME280;47692;53.714;11.372;2023-02-28T11:13:17;102743.94;;;4.56;65.80
61786;BME280;47692;53.714;11.372;2023-02-28T11:15:50;102741.25;;;4.52;68.09
61786;BME280;47692;53.714;11.372;2023-02-28T11:20:53;102735.03;;;4.47;68.01
61786;BME280;47692;53.714;11.372;2023-02-28T11:23:24;102743.59;;;4.71;68.52
61786;BME280;47692;53.714;11.372;2023-02-28T11:25:54;102732.06;;;5.14;65.16
61786;BME280;47692;53.714;11.372;2023-02-28T11:28:33;102737.00;;;5.33;62.56
61786;BME280;47692;53.714;11.372;2023-02-28T11:33:32;102737.38;;;5.75;62.04
61786;BME280;47692;53.714;11.372;2023-02-28T11:38:36;102735.69;;;6.04;63.12
61786;BME280;47692;53.714;11.372;2023-02-28T11:47:12;102718.19;;;6.29;58.39
61786;BME280;47692;53.714;11.372;2023-02-28T11:49:57;102712.50;;;6.44;56.71
61786;BME280;47692;53.714;11.372;2023-02-28T11:52:53;102705.84;;;6.54;57.46
61786;BME280;47692;53.714;11.372;2023-02-28T11:55:30;102702.53;;;6.58;56.06
61786;BME280;47692;53.714;11.372;2023-02-28T12:01:27;102691.53;;;6.68;55.04
61786;BME280;47692;53.714;11.372;2023-02-28T12:28:46;102663.25;;;8.03;52.76
61786;BME280;47692;53.714;11.372;2023-02-28T12:31:35;102652.72;;;7.95;51.69
61786;BME280;47692;53.714;11.372;2023-02-28T12:34:06;102649.28;;;7.96;51.02
61786;BME280;47692;53.714;11.372;2023-02-28T12:36:35;102651.31;;;8.13;50.69
61786;BME280;47692;53.714;11.372;2023-02-28T12:39:24;102632.09;;;8.04;49.89
61786;BME280;47692;53.714;11.372;2023-02-28T12:42:01;102629.44;;;8.03;50.05
61786;BME280;47692;53.714;11.372;2023-02-28T12:44:40;102631.59;;;8.25;49.48
61786;BME280;47692;53.714;11.372;2023-02-28T12:47:15;102620.47;;;8.34;48.66
61786;BME280;47692;53.714;11.372;2023-02-28T12:49:53;102620.81;;;8.53;48.82
61786;BME280;47692;53.714;11.372;2023-02-28T12:52:41;102614.88;;;8.62;48.80
61786;BME280;47692;53.714;11.372;2023-02-28T12:58:16;102615.13;;;8.79;48.08
61786;BME280;47692;53.714;11.372;2023-02-28T13:03:37;102624.03;;;8.95;48.44
61786;BME280;47692;53.714;11.372;2023-02-28T13:09:15;102620.66;;;9.00;49.58
61786;BME280;47692;53.714;11.372;2023-02-28T13:11:49;102627.84;;;9.18;49.26
61786;BME280;47692;53.714;11.372;2023-02-28T13:17:11;102625.97;;;9.07;48.80
61786;BME280;47692;53.714;11.372;2023-02-28T13:19:44;102623.75;;;8.76;49.10
61786;BME280;47692;53.714;11.372;2023-02-28T13:22:40;102620.91;;;8.59;49.69
61786;BME280;47692;53.714;11.372;2023-02-28T13:27:49;102625.81;;;8.44;49.21
61786;BME280;47692;53.714;11.372;2023-02-28T13:38:38;102620.56;;;8.94;49.46
61786;BME280;47692;53.714;11.372;2023-02-28T13:41:40;102619.16;;;9.16;48.37
61786;BME280;47692;53.714;11.372;2023-02-28T13:44:10;102621.88;;;9.27;48.68
61786;BME280;47692;53.714;11.372;2023-02-28T13:55:01;102609.56;;;9.14;47.74
61786;BME280;47692;53.714;11.372;2023-02-28T13:58:05;102607.81;;;9.13;48.07
61786;BME280;47692;53.714;11.372;2023-02-28T14:01:42;102611.53;;;9.33;48.40
61786;BME280;47692;53.714;11.372;2023-02-28T14:06:28;102609.50;;;9.11;48.41
61786;BME280;47692;53.714;11.372;2023-02-28T14:11:43;102605.91;;;9.02;48.71
61786;BME280;47692;53.714;11.372;2023-02-28T14:14:52;102611.13;;;9.02;49.62
61786;BME280;47692;53.714;11.372;2023-02-28T14:16:55;102607.41;;;8.85;48.88
61786;BME280;47692;53.714;11.372;2023-02-28T14:19:24;102607.13;;;8.66;50.11
61786;BME280;47692;53.714;11.372;2023-02-28T14:22:39;102608.03;;;8.18;50.70
61786;BME280;47692;53.714;11.372;2023-02-28T14:25:15;102615.06;;;8.22;50.78
61786;BME280;47692;53.714;11.372;2023-02-28T14:28:21;102612.59;;;8.30;50.69
61786;BME280;47692;53.714;11.372;2023-02-28T14:36:05;102604.59;;;8.19;50.95
61786;BME280;47692;53.714;11.372;2023-02-28T14:38:40;102602.88;;;8.19;50.50
61786;BME280;47692;53.714;11.372;2023-02-28T14:41:15;102589.25;;;8.36;49.73
61786;BME280;47692;53.714;11.372;2023-02-28T14:43:57;102592.13;;;8.51;49.54
61786;BME280;47692;53.714;11.372;2023-02-28T14:46:26;102590.03;;;8.30;49.19
61786;BME280;47692;53.714;11.372;2023-02-28T14:48:54;102590.88;;;8.29;50.07
61786;BME280;47692;53.714;11.372;2023-02-28T14:51:23;102578.34;;;8.06;49.78
61786;BME280;47692;53.714;11.372;2023-02-28T14:53:52;102583.34;;;7.94;50.00
61786;BME280;47692;53.714;11.372;2023-02-28T14:56:23;102577.91;;;7.82;51.30
61786;BME280;47692;53.714;11.372;2023-02-28T14:58:54;102577.63;;;7.66;50.96
61786;BME280;47692;53.714;11.372;2023-02-28T15:01:23;102570.16;;;7.37;50.99